sensor_id;sensor_type;location;lat;lon;timestamp;P1;durP1;ratioP1;P2;durP2;ratioP2
26718;SDS011;14326;50.794;6.060;2022-12-24T00:01:26;32.25;;;4.18;;
26718;SDS011;14326;50.794;6.060;2022-12-24T00:03:52;28.85;;;4.95;;
26718;SDS011;14326;50.794;6.060;2022-12-24T00:06:21;26.15;;;3.78;;
26718;SDS011;14326;50.794;6.060;2022-12-24T00:08:49;32.45;;;4.70;;
26718;SDS011;14326;50.794;6.060;2022-12-24T00:11:16;29.92;;;3.90;;
26718;SDS011;14326;50.794;6.060;2022-12-24T00:13:43;22.88;;;4.30;;
26718;SDS011;14326;50.794;6.060;2022-12-24T00:16:10;29.38;;;3.92;;
26718;SDS011;14326;50.794;6.060;2022-12-24T00:18:37;29.00;;;4.55;;
26718;SDS011;14326;50.794;6.060;2022-12-24T00:21:03;28.05;;;4.45;;
26718;SDS011;14326;50.794;6.060;2022-12-24T00:23:32;32.22;;;4.55;;
26718;SDS011;14326;50.794;6.060;2022-12-24T00:25:59;27.98;;;4.22;;
26718;SDS011;14326;50.794;6.060;2022-12-24T00:28:25;24.75;;;4.07;;
26718;SDS011;14326;50.794;6.060;2022-12-24T00:30:52;31.67;;;4.35;;
26718;SDS011;14326;50.794;6.060;2022-12-24T00:33:18;25.25;;;4.72;;
26718;SDS011;14326;50.794;6.060;2022-12-24T00:35:48;33.90;;;5.05;;
26718;SDS011;14326;50.794;6.060;2022-12-24T00:38:16;39.13;;;4.53;;
26718;SDS011;14326;50.794;6.060;2022-12-24T00:40:44;29.00;;;4.72;;
26718;SDS011;14326;50.794;6.060;2022-12-24T00:43:10;29.30;;;4.55;;
26718;SDS011;14326;50.794;6.060;2022-12-24T00:45:37;24.50;;;3.72;;
26718;SDS011;14326;50.794;6.060;2022-12-24T00:48:04;39.58;;;5.90;;
26718;SDS011;14326;50.794;6.060;2022-12-24T00:50:31;29.88;;;4.25;;
26718;SDS011;14326;50.794;6.060;2022-12-24T00:52:57;25.05;;;4.05;;
26718;SDS011;14326;50.794;6.060;2022-12-24T00:55:24;25.25;;;3.90;;
26718;SDS011;14326;50.794;6.060;2022-12-24T00:57:52;32.03;;;4.60;;
26718;SDS011;14326;50.794;6.060;2022-12-24T01:00:19;26.75;;;4.15;;
26718;SDS011;14326;50.794;6.060;2022-12-24T01:02:45;29.38;;;4.05;;
26718;SDS011;14326;50.794;6.060;2022-12-24T01:05:12;37.28;;;4.78;;
26718;SDS011;14326;50.794;6.060;2022-12-24T01:07:38;29.30;;;4.20;;
26718;SDS011;14326;50.794;6.060;2022-12-24T01:10:06;32.30;;;4.50;;
26718;SDS011;14326;50.794;6.060;2022-12-24T01:12:33;28.73;;;4.57;;
26718;SDS011;14326;50.794;6.060;2022-12-24T01:15:01;30.63;;;4.68;;
26718;SDS011;14326;50.794;6.060;2022-12-24T01:17:30;28.80;;;4.75;;
26718;SDS011;14326;50.794;6.060;2022-12-24T01:19:56;29.05;;;4.35;;
26718;SDS011;14326;50.794;6.060;2022-12-24T01:22:23;22.80;;;3.50;;
26718;SDS011;14326;50.794;6.060;2022-12-24T01:24:49;34.13;;;4.70;;
26718;SDS011;14326;50.794;6.060;2022-12-24T01:27:16;29.73;;;4.75;;
26718;SDS011;14326;50.794;6.060;2022-12-24T01:29:42;29.77;;;4.20;;
26718;SDS011;14326;50.794;6.060;2022-12-24T01:32:11;30.60;;;5.00;;
26718;SDS011;14326;50.794;6.060;2022-12-24T01:34:37;29.85;;;4.55;;
26718;SDS011;14326;50.794;6.060;2022-12-24T01:37:04;29.38;;;3.92;;
26718;SDS011;14326;50.794;6.060;2022-12-24T01:39:30;31.23;;;4.07;;
26718;SDS011;14326;50.794;6.060;2022-12-24T01:41:57;31.45;;;5.57;;
26718;SDS011;14326;50.794;6.060;2022-12-24T01:44:42;32.42;;;3.78;;
26718;SDS011;14326;50.794;6.060;2022-12-24T01:49:44;42.47;;;5.32;;
26718;SDS011;14326;50.794;6.060;2022-12-24T01:52:15;35.55;;;4.55;;
26718;SDS011;14326;50.794;6.060;2022-12-24T01:54:45;29.67;;;4.50;;
26718;SDS011;14326;50.794;6.060;2022-12-24T01:57:16;27.33;;;3.67;;
26718;SDS011;14326;50.794;6.060;2022-12-24T01:59:46;32.25;;;3.92;;
26718;SDS011;14326;50.794;6.060;2022-12-24T02:02:17;32.58;;;4.22;;
26718;SDS011;14326;50.794;6.060;2022-12-24T02:04:45;31.85;;;5.72;;
26718;SDS011;14326;50.794;6.060;2022-12-24T02:07:18;30.67;;;3.88;;
26718;SDS011;14326;50.794;6.060;2022-12-24T02:09:44;30.63;;;4.20;;
26718;SDS011;14326;50.794;6.060;2022-12-24T02:12:14;28.50;;;4.40;;
26718;SDS011;14326;50.794;6.060;2022-12-24T02:14:41;26.85;;;4.78;;
26718;SDS011;14326;50.794;6.060;2022-12-24T02:17:10;24.17;;;3.72;;
26718;SDS011;14326;50.794;6.060;2022-12-24T02:22:42;33.72;;;4.78;;
26718;SDS011;14326;50.794;6.060;2022-12-24T02:25:22;25.88;;;4.53;;
26718;SDS011;14326;50.794;6.060;2022-12-24T02:27:59;29.75;;;3.40;;
26718;SDS011;14326;50.794;6.060;2022-12-24T02:30:39;25.15;;;3.72;;
26718;SDS011;14326;50.794;6.060;2022-12-24T02:33:11;15.65;;;3.13;;
26718;SDS011;14326;50.794;6.060;2022-12-24T02:35:45;28.42;;;4.32;;
26718;SDS011;14326;50.794;6.060;2022-12-24T02:38:17;27.10;;;4.15;;
26718;SDS011;14326;50.794;6.060;2022-12-24T02:40:49;26.70;;;4.07;;
26718;SDS011;14326;50.794;6.060;2022-12-24T02:43:22;23.95;;;3.60;;
26718;SDS011;14326;50.794;6.060;2022-12-24T02:45:55;27.48;;;4.13;;
26718;SDS011;14326;50.794;6.060;2022-12-24T02:48:25;27.25;;;4.38;;
26718;SDS011;14326;50.794;6.060;2022-12-24T02:50:59;24.35;;;3.95;;
26718;SDS011;14326;50.794;6.060;2022-12-24T02:53:31;29.58;;;4.55;;
26718;SDS011;14326;50.794;6.060;2022-12-24T02:56:02;25.75;;;3.60;;
26718;SDS011;14326;50.794;6.060;2022-12-24T02:58:41;17.80;;;3.28;;
26718;SDS011;14326;50.794;6.060;2022-12-24T03:01:21;17.13;;;2.27;;
26718;SDS011;14326;50.794;6.060;2022-12-24T03:03:59;15.73;;;2.22;;
26718;SDS011;14326;50.794;6.060;2022-12-24T03:06:39;14.75;;;2.33;;
26718;SDS011;14326;50.794;6.060;2022-12-24T03:09:13;17.10;;;3.22;;
26718;SDS011;14326;50.794;6.060;2022-12-24T03:11:47;17.63;;;3.25;;
26718;SDS011;14326;50.794;6.060;2022-12-24T03:14:20;29.90;;;4.30;;
26718;SDS011;14326;50.794;6.060;2022-12-24T03:16:49;23.95;;;4.18;;
26718;SDS011;14326;50.794;6.060;2022-12-24T03:19:16;23.65;;;4.00;;
26718;SDS011;14326;50.794;6.060;2022-12-24T03:21:43;16.40;;;3.35;;
26718;SDS011;14326;50.794;6.060;2022-12-24T03:24:12;28.23;;;3.33;;
26718;SDS011;14326;50.794;6.060;2022-12-24T03:26:39;8.98;;;1.98;;
26718;SDS011;14326;50.794;6.060;2022-12-24T03:29:07;14.10;;;2.00;;
26718;SDS011;14326;50.794;6.060;2022-12-24T03:31:41;9.85;;;1.40;;
26718;SDS011;14326;50.794;6.060;2022-12-24T03:34:10;7.20;;;1.83;;
26718;SDS011;14326;50.794;6.060;2022-12-24T03:36:37;7.60;;;1.00;;
26718;SDS011;14326;50.794;6.060;2022-12-24T03:39:04;6.43;;;1.23;;
26718;SDS011;14326;50.794;6.060;2022-12-24T03:41:31;10.00;;;1.58;;
26718;SDS011;14326;50.794;6.060;2022-12-24T03:43:58;9.52;;;1.40;;
26718;SDS011;14326;50.794;6.060;2022-12-24T03:46:24;6.05;;;1.17;;
26718;SDS011;14326;50.794;6.060;2022-12-24T03:48:51;13.93;;;3.00;;
26718;SDS011;14326;50.794;6.060;2022-12-24T03:51:19;16.13;;;2.92;;
26718;SDS011;14326;50.794;6.060;2022-12-24T03:53:48;25.48;;;4.28;;
26718;SDS011;14326;50.794;6.060;2022-12-24T03:56:14;23.73;;;4.53;;
26718;SDS011;14326;50.794;6.060;2022-12-24T03:58:41;24.90;;;4.97;;
26718;SDS011;14326;50.794;6.060;2022-12-24T04:01:07;26.70;;;4.78;;
26718;SDS011;14326;50.794;6.060;2022-12-24T04:03:34;24.75;;;4.75;;
26718;SDS011;14326;50.794;6.060;2022-12-24T04:06:01;18.95;;;4.10;;
26718;SDS011;14326;50.794;6.060;2022-12-24T04:08:31;28.10;;;4.78;;
26718;SDS011;14326;50.794;6.060;2022-12-24T04:10:57;31.10;;;4.45;;
26718;SDS011;14326;50.794;6.060;2022-12-24T04:13:24;28.73;;;4.93;;
26718;SDS011;14326;50.794;6.060;2022-12-24T04:15:55;38.45;;;5.68;;
26718;SDS011;14326;50.794;6.060;2022-12-24T04:18:23;28.52;;;4.28;;
26718;SDS011;14326;50.794;6.060;2022-12-24T04:20:49;25.98;;;4.72;;
26718;SDS011;14326;50.794;6.060;2022-12-24T04:23:16;33.15;;;6.15;;
26718;SDS011;14326;50.794;6.060;2022-12-24T04:25:44;28.73;;;4.40;;
26718;SDS011;14326;50.794;6.060;2022-12-24T04:28:11;29.42;;;4.03;;
26718;SDS011;14326;50.794;6.060;2022-12-24T04:30:37;31.65;;;5.53;;
26718;SDS011;14326;50.794;6.060;2022-12-24T04:33:04;24.73;;;4.18;;
26718;SDS011;14326;50.794;6.060;2022-12-24T04:35:31;33.25;;;4.72;;
26718;SDS011;14326;50.794;6.060;2022-12-24T04:37:58;27.95;;;4.65;;
26718;SDS011;14326;50.794;6.060;2022-12-24T04:40:25;25.98;;;4.18;;
26718;SDS011;14326;50.794;6.060;2022-12-24T04:42:52;22.33;;;4.13;;
26718;SDS011;14326;50.794;6.060;2022-12-24T04:45:19;27.98;;;4.75;;
26718;SDS011;14326;50.794;6.060;2022-12-24T04:47:46;28.70;;;4.47;;
26718;SDS011;14326;50.794;6.060;2022-12-24T04:50:12;28.17;;;5.00;;
26718;SDS011;14326;50.794;6.060;2022-12-24T04:52:39;28.60;;;5.03;;
26718;SDS011;14326;50.794;6.060;2022-12-24T04:55:06;33.45;;;5.68;;
26718;SDS011;14326;50.794;6.060;2022-12-24T04:57:33;35.90;;;5.65;;
26718;SDS011;14326;50.794;6.060;2022-12-24T05:00:03;25.30;;;4.43;;
26718;SDS011;14326;50.794;6.060;2022-12-24T05:02:32;29.67;;;5.22;;
26718;SDS011;14326;50.794;6.060;2022-12-24T05:04:58;34.83;;;5.07;;
26718;SDS011;14326;50.794;6.060;2022-12-24T05:07:25;28.02;;;4.68;;
26718;SDS011;14326;50.794;6.060;2022-12-24T05:09:51;27.55;;;4.97;;
26718;SDS011;14326;50.794;6.060;2022-12-24T05:12:18;26.92;;;5.47;;
26718;SDS011;14326;50.794;6.060;2022-12-24T05:14:44;37.47;;;5.03;;
26718;SDS011;14326;50.794;6.060;2022-12-24T05:17:12;30.77;;;6.03;;
26718;SDS011;14326;50.794;6.060;2022-12-24T05:19:39;27.48;;;5.25;;
26718;SDS011;14326;50.794;6.060;2022-12-24T05:22:06;35.05;;;5.40;;
26718;SDS011;14326;50.794;6.060;2022-12-24T05:24:50;29.95;;;4.35;;
26718;SDS011;14326;50.794;6.060;2022-12-24T05:27:34;35.53;;;5.25;;
26718;SDS011;14326;50.794;6.060;2022-12-24T05:30:01;28.25;;;5.15;;
26718;SDS011;14326;50.794;6.060;2022-12-24T05:32:29;33.30;;;5.88;;
26718;SDS011;14326;50.794;6.060;2022-12-24T05:34:56;38.10;;;6.05;;
26718;SDS011;14326;50.794;6.060;2022-12-24T05:37:22;37.20;;;5.28;;
26718;SDS011;14326;50.794;6.060;2022-12-24T05:39:49;27.02;;;4.18;;
26718;SDS011;14326;50.794;6.060;2022-12-24T05:42:15;28.80;;;4.85;;
26718;SDS011;14326;50.794;6.060;2022-12-24T05:44:42;31.05;;;5.03;;
26718;SDS011;14326;50.794;6.060;2022-12-24T05:47:08;27.92;;;5.70;;
26718;SDS011;14326;50.794;6.060;2022-12-24T05:49:36;29.48;;;4.95;;
26718;SDS011;14326;50.794;6.060;2022-12-24T05:52:03;34.70;;;5.40;;
26718;SDS011;14326;50.794;6.060;2022-12-24T05:54:30;30.95;;;5.28;;
26718;SDS011;14326;50.794;6.060;2022-12-24T05:56:56;31.80;;;5.72;;
26718;SDS011;14326;50.794;6.060;2022-12-24T05:59:23;32.83;;;4.95;;
26718;SDS011;14326;50.794;6.060;2022-12-24T06:01:49;29.23;;;5.88;;
26718;SDS011;14326;50.794;6.060;2022-12-24T06:04:16;29.92;;;5.25;;
26718;SDS011;14326;50.794;6.060;2022-12-24T06:06:44;33.45;;;4.60;;
26718;SDS011;14326;50.794;6.060;2022-12-24T06:09:10;29.83;;;5.78;;
26718;SDS011;14326;50.794;6.060;2022-12-24T06:11:37;25.88;;;4.55;;
26718;SDS011;14326;50.794;6.060;2022-12-24T06:14:03;37.60;;;4.93;;
26718;SDS011;14326;50.794;6.060;2022-12-24T06:16:30;38.80;;;5.30;;
26718;SDS011;14326;50.794;6.060;2022-12-24T06:18:57;33.13;;;3.83;;
26718;SDS011;14326;50.794;6.060;2022-12-24T06:21:24;33.72;;;5.35;;
26718;SDS011;14326;50.794;6.060;2022-12-24T06:23:52;28.92;;;3.97;;
26718;SDS011;14326;50.794;6.060;2022-12-24T06:26:20;35.22;;;5.65;;
26718;SDS011;14326;50.794;6.060;2022-12-24T06:28:48;27.92;;;4.32;;
26718;SDS011;14326;50.794;6.060;2022-12-24T06:31:16;31.95;;;4.82;;
26718;SDS011;14326;50.794;6.060;2022-12-24T06:33:44;35.67;;;5.10;;
26718;SDS011;14326;50.794;6.060;2022-12-24T06:36:13;37.00;;;5.38;;
26718;SDS011;14326;50.794;6.060;2022-12-24T06:38:42;29.52;;;5.30;;
26718;SDS011;14326;50.794;6.060;2022-12-24T06:41:10;28.60;;;4.57;;
26718;SDS011;14326;50.794;6.060;2022-12-24T06:43:36;35.85;;;5.80;;
26718;SDS011;14326;50.794;6.060;2022-12-24T06:46:03;30.27;;;4.60;;
26718;SDS011;14326;50.794;6.060;2022-12-24T06:48:30;33.88;;;5.07;;
26718;SDS011;14326;50.794;6.060;2022-12-24T06:50:56;34.25;;;4.30;;
26718;SDS011;14326;50.794;6.060;2022-12-24T06:53:23;37.92;;;6.65;;
26718;SDS011;14326;50.794;6.060;2022-12-24T06:55:50;32.65;;;5.72;;
26718;SDS011;14326;50.794;6.060;2022-12-24T06:58:17;30.52;;;5.35;;
26718;SDS011;14326;50.794;6.060;2022-12-24T07:00:46;36.90;;;5.80;;
26718;SDS011;14326;50.794;6.060;2022-12-24T07:03:12;29.05;;;4.45;;
26718;SDS011;14326;50.794;6.060;2022-12-24T07:05:39;30.95;;;4.93;;
26718;SDS011;14326;50.794;6.060;2022-12-24T07:08:07;26.50;;;4.53;;
26718;SDS011;14326;50.794;6.060;2022-12-24T07:10:33;38.70;;;5.68;;
26718;SDS011;14326;50.794;6.060;2022-12-24T07:13:00;34.00;;;4.80;;
26718;SDS011;14326;50.794;6.060;2022-12-24T07:15:28;34.42;;;4.85;;
26718;SDS011;14326;50.794;6.060;2022-12-24T07:17:54;23.25;;;3.97;;
26718;SDS011;14326;50.794;6.060;2022-12-24T07:20:21;34.15;;;5.32;;
26718;SDS011;14326;50.794;6.060;2022-12-24T07:22:48;29.17;;;5.13;;
26718;SDS011;14326;50.794;6.060;2022-12-24T07:25:14;34.72;;;5.07;;
26718;SDS011;14326;50.794;6.060;2022-12-24T07:27:41;37.17;;;5.95;;
26718;SDS011;14326;50.794;6.060;2022-12-24T07:30:08;35.22;;;5.60;;
26718;SDS011;14326;50.794;6.060;2022-12-24T07:32:36;32.13;;;5.85;;
26718;SDS011;14326;50.794;6.060;2022-12-24T07:35:03;33.15;;;6.57;;
26718;SDS011;14326;50.794;6.060;2022-12-24T07:37:30;38.28;;;5.78;;
26718;SDS011;14326;50.794;6.060;2022-12-24T07:39:57;31.52;;;6.00;;
26718;SDS011;14326;50.794;6.060;2022-12-24T07:42:24;32.05;;;5.00;;
26718;SDS011;14326;50.794;6.060;2022-12-24T07:44:50;32.85;;;4.90;;
26718;SDS011;14326;50.794;6.060;2022-12-24T07:47:17;30.73;;;4.68;;
26718;SDS011;14326;50.794;6.060;2022-12-24T07:49:45;35.45;;;5.53;;
26718;SDS011;14326;50.794;6.060;2022-12-24T07:52:11;41.20;;;5.50;;
26718;SDS011;14326;50.794;6.060;2022-12-24T07:54:38;32.78;;;4.55;;
26718;SDS011;14326;50.794;6.060;2022-12-24T07:57:05;33.88;;;5.28;;
26718;SDS011;14326;50.794;6.060;2022-12-24T07:59:31;46.03;;;6.15;;
26718;SDS011;14326;50.794;6.060;2022-12-24T08:01:58;38.63;;;5.43;;
26718;SDS011;14326;50.794;6.060;2022-12-24T08:04:24;32.05;;;6.05;;
26718;SDS011;14326;50.794;6.060;2022-12-24T08:06:52;35.95;;;5.57;;
26718;SDS011;14326;50.794;6.060;2022-12-24T08:09:19;30.63;;;4.28;;
26718;SDS011;14326;50.794;6.060;2022-12-24T08:11:46;38.22;;;5.45;;
26718;SDS011;14326;50.794;6.060;2022-12-24T08:14:13;27.27;;;4.82;;
26718;SDS011;14326;50.794;6.060;2022-12-24T08:16:39;26.35;;;5.00;;
26718;SDS011;14326;50.794;6.060;2022-12-24T08:19:06;39.05;;;5.47;;
26718;SDS011;14326;50.794;6.060;2022-12-24T08:21:33;29.38;;;5.10;;
26718;SDS011;14326;50.794;6.060;2022-12-24T08:24:00;32.88;;;4.97;;
26718;SDS011;14326;50.794;6.060;2022-12-24T08:26:27;40.67;;;5.38;;
26718;SDS011;14326;50.794;6.060;2022-12-24T08:28:54;30.77;;;4.90;;
26718;SDS011;14326;50.794;6.060;2022-12-24T08:31:20;36.10;;;5.53;;
26718;SDS011;14326;50.794;6.060;2022-12-24T08:33:47;29.67;;;4.60;;
26718;SDS011;14326;50.794;6.060;2022-12-24T08:36:13;40.22;;;7.00;;
26718;SDS011;14326;50.794;6.060;2022-12-24T08:38:40;31.85;;;5.25;;
26718;SDS011;14326;50.794;6.060;2022-12-24T08:41:08;37.83;;;5.75;;
26718;SDS011;14326;50.794;6.060;2022-12-24T08:43:34;33.03;;;5.18;;
26718;SDS011;14326;50.794;6.060;2022-12-24T08:46:01;35.70;;;5.85;;
26718;SDS011;14326;50.794;6.060;2022-12-24T08:48:29;25.90;;;4.78;;
26718;SDS011;14326;50.794;6.060;2022-12-24T08:50:56;34.55;;;4.90;;
26718;SDS011;14326;50.794;6.060;2022-12-24T08:53:23;33.03;;;4.68;;
26718;SDS011;14326;50.794;6.060;2022-12-24T08:55:50;35.72;;;4.93;;
26718;SDS011;14326;50.794;6.060;2022-12-24T08:58:18;31.25;;;4.70;;
26718;SDS011;14326;50.794;6.060;2022-12-24T09:00:44;30.17;;;5.25;;
26718;SDS011;14326;50.794;6.060;2022-12-24T09:03:12;38.58;;;5.43;;
26718;SDS011;14326;50.794;6.060;2022-12-24T09:05:41;29.93;;;4.53;;
26718;SDS011;14326;50.794;6.060;2022-12-24T09:08:07;28.83;;;4.32;;
26718;SDS011;14326;50.794;6.060;2022-12-24T09:10:34;28.13;;;4.88;;
26718;SDS011;14326;50.794;6.060;2022-12-24T09:13:01;30.75;;;5.07;;
26718;SDS011;14326;50.794;6.060;2022-12-24T09:15:28;36.53;;;6.00;;
26718;SDS011;14326;50.794;6.060;2022-12-24T09:17:55;31.23;;;5.38;;
26718;SDS011;14326;50.794;6.060;2022-12-24T09:20:22;39.25;;;5.28;;
26718;SDS011;14326;50.794;6.060;2022-12-24T09:22:49;38.75;;;5.38;;
26718;SDS011;14326;50.794;6.060;2022-12-24T09:25:16;27.48;;;4.70;;
26718;SDS011;14326;50.794;6.060;2022-12-24T09:27:43;32.08;;;5.88;;
26718;SDS011;14326;50.794;6.060;2022-12-24T09:30:10;27.42;;;4.55;;
26718;SDS011;14326;50.794;6.060;2022-12-24T09:32:38;27.88;;;4.88;;
26718;SDS011;14326;50.794;6.060;2022-12-24T09:35:05;29.02;;;4.78;;
26718;SDS011;14326;50.794;6.060;2022-12-24T09:37:32;31.60;;;4.93;;
26718;SDS011;14326;50.794;6.060;2022-12-24T09:39:58;40.15;;;6.15;;
26718;SDS011;14326;50.794;6.060;2022-12-24T09:42:27;38.40;;;6.35;;
26718;SDS011;14326;50.794;6.060;2022-12-24T09:45:11;35.97;;;6.05;;
26718;SDS011;14326;50.794;6.060;2022-12-24T09:47:45;29.30;;;5.15;;
26718;SDS011;14326;50.794;6.060;2022-12-24T09:50:21;28.25;;;5.13;;
26718;SDS011;14326;50.794;6.060;2022-12-24T09:52:54;40.93;;;6.13;;
26718;SDS011;14326;50.794;6.060;2022-12-24T09:55:24;30.13;;;5.30;;
26718;SDS011;14326;50.794;6.060;2022-12-24T09:57:53;31.98;;;5.03;;
26718;SDS011;14326;50.794;6.060;2022-12-24T10:00:23;35.40;;;5.20;;
26718;SDS011;14326;50.794;6.060;2022-12-24T10:02:54;32.67;;;5.82;;
26718;SDS011;14326;50.794;6.060;2022-12-24T10:05:24;34.55;;;5.93;;
26718;SDS011;14326;50.794;6.060;2022-12-24T10:08:02;39.92;;;5.57;;
26718;SDS011;14326;50.794;6.060;2022-12-24T10:10:39;38.15;;;6.15;;
26718;SDS011;14326;50.794;6.060;2022-12-24T10:13:13;34.63;;;5.13;;
26718;SDS011;14326;50.794;6.060;2022-12-24T10:15:49;32.40;;;5.38;;
26718;SDS011;14326;50.794;6.060;2022-12-24T10:18:29;31.30;;;4.80;;
26718;SDS011;14326;50.794;6.060;2022-12-24T10:21:05;31.37;;;5.33;;
26718;SDS011;14326;50.794;6.060;2022-12-24T10:23:39;30.77;;;4.38;;
26718;SDS011;14326;50.794;6.060;2022-12-24T10:26:13;38.53;;;6.40;;
26718;SDS011;14326;50.794;6.060;2022-12-24T10:28:46;33.38;;;5.47;;
26718;SDS011;14326;50.794;6.060;2022-12-24T10:31:16;32.45;;;4.90;;
26718;SDS011;14326;50.794;6.060;2022-12-24T10:33:49;36.92;;;4.88;;
26718;SDS011;14326;50.794;6.060;2022-12-24T10:36:23;34.22;;;5.43;;
26718;SDS011;14326;50.794;6.060;2022-12-24T10:38:53;33.20;;;4.43;;
26718;SDS011;14326;50.794;6.060;2022-12-24T10:41:20;41.63;;;6.68;;
26718;SDS011;14326;50.794;6.060;2022-12-24T10:43:47;37.80;;;5.38;;
26718;SDS011;14326;50.794;6.060;2022-12-24T10:46:16;31.33;;;5.35;;
26718;SDS011;14326;50.794;6.060;2022-12-24T10:48:45;36.45;;;4.93;;
26718;SDS011;14326;50.794;6.060;2022-12-24T10:51:20;41.88;;;7.20;;
26718;SDS011;14326;50.794;6.060;2022-12-24T10:53:51;40.65;;;6.00;;
26718;SDS011;14326;50.794;6.060;2022-12-24T10:56:23;34.53;;;6.05;;
26718;SDS011;14326;50.794;6.060;2022-12-24T10:58:51;34.40;;;5.35;;
26718;SDS011;14326;50.794;6.060;2022-12-24T11:01:19;30.83;;;4.97;;
26718;SDS011;14326;50.794;6.060;2022-12-24T11:03:58;33.88;;;4.75;;
26718;SDS011;14326;50.794;6.060;2022-12-24T11:06:26;25.83;;;4.57;;
26718;SDS011;14326;50.794;6.060;2022-12-24T11:08:52;36.28;;;5.15;;
26718;SDS011;14326;50.794;6.060;2022-12-24T11:11:19;36.92;;;5.55;;
26718;SDS011;14326;50.794;6.060;2022-12-24T11:13:51;30.10;;;4.50;;
26718;SDS011;14326;50.794;6.060;2022-12-24T11:16:21;28.25;;;5.82;;
26718;SDS011;14326;50.794;6.060;2022-12-24T11:18:55;35.60;;;4.70;;
26718;SDS011;14326;50.794;6.060;2022-12-24T11:21:23;37.83;;;5.32;;
26718;SDS011;14326;50.794;6.060;2022-12-24T11:23:53;43.03;;;7.57;;
26718;SDS011;14326;50.794;6.060;2022-12-24T11:26:23;37.78;;;5.15;;
26718;SDS011;14326;50.794;6.060;2022-12-24T11:31:41;34.80;;;6.20;;
26718;SDS011;14326;50.794;6.060;2022-12-24T11:34:24;34.53;;;5.53;;
26718;SDS011;14326;50.794;6.060;2022-12-24T11:36:52;39.40;;;6.10;;
26718;SDS011;14326;50.794;6.060;2022-12-24T11:39:21;27.08;;;5.47;;
26718;SDS011;14326;50.794;6.060;2022-12-24T11:41:49;30.50;;;5.70;;
26718;SDS011;14326;50.794;6.060;2022-12-24T11:44:22;31.35;;;5.75;;
26718;SDS011;14326;50.794;6.060;2022-12-24T11:46:51;32.95;;;5.20;;
26718;SDS011;14326;50.794;6.060;2022-12-24T11:49:26;27.10;;;4.65;;
26718;SDS011;14326;50.794;6.060;2022-12-24T11:52:09;31.27;;;4.65;;
26718;SDS011;14326;50.794;6.060;2022-12-24T11:54:51;34.33;;;5.88;;
26718;SDS011;14326;50.794;6.060;2022-12-24T11:57:36;38.85;;;7.03;;
26718;SDS011;14326;50.794;6.060;2022-12-24T12:00:09;29.98;;;5.55;;
26718;SDS011;14326;50.794;6.060;2022-12-24T12:02:37;30.95;;;5.47;;
26718;SDS011;14326;50.794;6.060;2022-12-24T12:05:08;40.37;;;5.07;;
26718;SDS011;14326;50.794;6.060;2022-12-24T12:07:38;28.77;;;4.88;;
26718;SDS011;14326;50.794;6.060;2022-12-24T12:10:05;28.35;;;5.43;;
26718;SDS011;14326;50.794;6.060;2022-12-24T12:12:40;31.95;;;5.15;;
26718;SDS011;14326;50.794;6.060;2022-12-24T12:17:38;36.83;;;5.22;;
26718;SDS011;14326;50.794;6.060;2022-12-24T12:20:11;38.83;;;6.50;;
26718;SDS011;14326;50.794;6.060;2022-12-24T12:22:43;34.72;;;5.05;;
26718;SDS011;14326;50.794;6.060;2022-12-24T12:25:16;27.85;;;4.68;;
26718;SDS011;14326;50.794;6.060;2022-12-24T12:27:48;23.60;;;4.70;;
26718;SDS011;14326;50.794;6.060;2022-12-24T12:30:19;36.38;;;5.57;;
26718;SDS011;14326;50.794;6.060;2022-12-24T12:32:47;34.00;;;5.05;;
26718;SDS011;14326;50.794;6.060;2022-12-24T12:35:22;27.67;;;5.82;;
26718;SDS011;14326;50.794;6.060;2022-12-24T12:37:57;27.23;;;4.72;;
26718;SDS011;14326;50.794;6.060;2022-12-24T12:40:45;32.63;;;5.63;;
26718;SDS011;14326;50.794;6.060;2022-12-24T12:43:23;26.77;;;5.25;;
26718;SDS011;14326;50.794;6.060;2022-12-24T12:46:04;38.88;;;5.22;;
26718;SDS011;14326;50.794;6.060;2022-12-24T12:48:48;29.67;;;5.10;;
26718;SDS011;14326;50.794;6.060;2022-12-24T12:51:26;27.65;;;4.72;;
26718;SDS011;14326;50.794;6.060;2022-12-24T12:54:03;30.85;;;4.63;;
26718;SDS011;14326;50.794;6.060;2022-12-24T12:56:48;30.55;;;4.82;;
26718;SDS011;14326;50.794;6.060;2022-12-24T12:59:19;31.38;;;5.43;;
26718;SDS011;14326;50.794;6.060;2022-12-24T13:01:56;29.67;;;4.68;;
26718;SDS011;14326;50.794;6.060;2022-12-24T13:04:42;35.85;;;4.78;;
26718;SDS011;14326;50.794;6.060;2022-12-24T13:07:35;24.70;;;4.13;;
26718;SDS011;14326;50.794;6.060;2022-12-24T13:16:25;29.75;;;5.45;;
26718;SDS011;14326;50.794;6.060;2022-12-24T13:19:07;28.52;;;5.40;;
26718;SDS011;14326;50.794;6.060;2022-12-24T13:21:42;30.23;;;5.35;;
26718;SDS011;14326;50.794;6.060;2022-12-24T13:24:15;32.55;;;5.07;;
26718;SDS011;14326;50.794;6.060;2022-12-24T13:26:57;25.38;;;5.32;;
26718;SDS011;14326;50.794;6.060;2022-12-24T13:29:29;32.72;;;4.45;;
26718;SDS011;14326;50.794;6.060;2022-12-24T13:44:13;26.02;;;4.97;;
26718;SDS011;14326;50.794;6.060;2022-12-24T13:46:45;34.65;;;6.22;;
26718;SDS011;14326;50.794;6.060;2022-12-24T13:49:17;32.80;;;5.55;;
26718;SDS011;14326;50.794;6.060;2022-12-24T13:51:46;35.97;;;5.57;;
26718;SDS011;14326;50.794;6.060;2022-12-24T13:54:14;30.80;;;5.60;;
26718;SDS011;14326;50.794;6.060;2022-12-24T13:56:46;25.40;;;4.85;;
26718;SDS011;14326;50.794;6.060;2022-12-24T13:59:21;30.23;;;4.57;;
26718;SDS011;14326;50.794;6.060;2022-12-24T14:01:57;24.35;;;5.15;;
26718;SDS011;14326;50.794;6.060;2022-12-24T14:04:24;39.15;;;6.15;;
26718;SDS011;14326;50.794;6.060;2022-12-24T14:06:56;29.77;;;5.18;;
26718;SDS011;14326;50.794;6.060;2022-12-24T14:12:15;25.80;;;4.35;;
26718;SDS011;14326;50.794;6.060;2022-12-24T14:14:57;32.45;;;5.20;;
26718;SDS011;14326;50.794;6.060;2022-12-24T14:17:24;39.00;;;5.40;;
26718;SDS011;14326;50.794;6.060;2022-12-24T14:19:53;30.95;;;5.63;;
26718;SDS011;14326;50.794;6.060;2022-12-24T14:22:26;25.52;;;4.82;;
26718;SDS011;14326;50.794;6.060;2022-12-24T14:24:56;37.80;;;5.50;;
26718;SDS011;14326;50.794;6.060;2022-12-24T14:27:30;29.23;;;5.18;;
26718;SDS011;14326;50.794;6.060;2022-12-24T14:30:04;31.42;;;5.20;;
26718;SDS011;14326;50.794;6.060;2022-12-24T14:32:36;34.95;;;5.78;;
26718;SDS011;14326;50.794;6.060;2022-12-24T14:35:08;30.95;;;6.50;;
26718;SDS011;14326;50.794;6.060;2022-12-24T14:37:41;31.45;;;6.28;;
26718;SDS011;14326;50.794;6.060;2022-12-24T14:40:14;35.85;;;5.50;;
26718;SDS011;14326;50.794;6.060;2022-12-24T14:42:45;29.92;;;5.82;;
26718;SDS011;14326;50.794;6.060;2022-12-24T14:45:21;32.72;;;5.30;;
26718;SDS011;14326;50.794;6.060;2022-12-24T14:47:55;28.92;;;5.43;;
26718;SDS011;14326;50.794;6.060;2022-12-24T14:50:36;30.33;;;5.43;;
26718;SDS011;14326;50.794;6.060;2022-12-24T14:53:16;31.35;;;5.68;;
26718;SDS011;14326;50.794;6.060;2022-12-24T14:55:49;26.48;;;5.22;;
26718;SDS011;14326;50.794;6.060;2022-12-24T14:58:27;29.77;;;4.93;;
26718;SDS011;14326;50.794;6.060;2022-12-24T15:00:56;31.90;;;4.88;;
26718;SDS011;14326;50.794;6.060;2022-12-24T15:03:25;35.38;;;5.07;;
26718;SDS011;14326;50.794;6.060;2022-12-24T15:05:54;28.35;;;4.90;;
26718;SDS011;14326;50.794;6.060;2022-12-24T15:08:25;30.88;;;5.07;;
26718;SDS011;14326;50.794;6.060;2022-12-24T15:10:56;37.97;;;4.93;;
26718;SDS011;14326;50.794;6.060;2022-12-24T15:13:29;33.80;;;5.97;;
26718;SDS011;14326;50.794;6.060;2022-12-24T15:15:59;33.03;;;5.18;;
26718;SDS011;14326;50.794;6.060;2022-12-24T15:18:28;35.90;;;6.13;;
26718;SDS011;14326;50.794;6.060;2022-12-24T15:20:57;35.72;;;5.85;;
26718;SDS011;14326;50.794;6.060;2022-12-24T15:23:28;34.25;;;4.63;;